Portada
METAR-TAF:

METAR-TAF

Aeroports :

Mataram, Indonèsia

latitud: 08-45-29S, longitud: 116-16-35E, altitud: 97 m

Observació

L'informe es va fer fa 26 minuts, a les 01:00 UTC
Vent calma
Temperatura 29°C
Humitat 79%
Pressió 1011 hPa
Visibilitat: 7000 m
Núvols disperses a una alçada de 1600 ft

METAR: WADL 300100Z 00000KT 7000 SCT016 29/25 Q1011 NOSIG

Hora: 08:26 (01:26 UTC)

Pronòstic

L'informe es va fer fa 2 hores i 26 minuts, a les 23:00 UTC
Pronòstic vàlid del 30 a les 00 UTC al 30 a les 24 UTC
Vent 10 kt del Est
Visibilitat: 8000 m
Núvols disperses a una alçada de 1600 ft
Temporalment
l' 30 a les 05 UTC al 30 a les 07 UTC
Visibilitat: 4000 m
Escasses núvols a una alçada de 1500 ft, Cumulonimbus.
Cel ennuvolat a una alçada de 1600 ft
tempesta, pluja

TAF: WADL 292300Z 3000/3024 09010KT 8000 SCT016 TEMPO 3005/3007 4000 TSRA FEW015CB BKN016

Observacions i pronòstics meteorològics de més de 4000 aeroports (METAR i TAF).

Les estacions disponibles són els punts grocs i vermells al mapa.

Posi el ratolí al punt desitjat per veure el nom de l'estació.

Feu clic per veure les observacions i els pronòstics meteorològics.

Per canviar el mapa: feu clic els botons verds amb una creu de color negre per apropar; al botó verd amb un guió per allunyar la imatge; o en les fletxes verdes per a mapes adjacents.


METAR-TAF: